sensor_id;sensor_type;location;lat;lon;timestamp;P1;durP1;ratioP1;P2;durP2;ratioP2
30571;SDS011;17348;50.948;10.696;2023-04-25T00:00:18;10.30;;;4.40;;
30571;SDS011;17348;50.948;10.696;2023-04-25T00:03:22;12.20;;;4.27;;
30571;SDS011;17348;50.948;10.696;2023-04-25T00:06:25;7.83;;;4.87;;
30571;SDS011;17348;50.948;10.696;2023-04-25T00:09:28;10.17;;;4.67;;
30571;SDS011;17348;50.948;10.696;2023-04-25T00:12:30;10.80;;;4.00;;
30571;SDS011;17348;50.948;10.696;2023-04-25T00:15:34;10.60;;;4.60;;
30571;SDS011;17348;50.948;10.696;2023-04-25T00:18:39;9.03;;;4.57;;
30571;SDS011;17348;50.948;10.696;2023-04-25T00:21:42;14.50;;;4.67;;
30571;SDS011;17348;50.948;10.696;2023-04-25T00:24:46;10.57;;;4.83;;
30571;SDS011;17348;50.948;10.696;2023-04-25T00:27:49;12.67;;;4.70;;
30571;SDS011;17348;50.948;10.696;2023-04-25T00:30:51;13.53;;;4.33;;
30571;SDS011;17348;50.948;10.696;2023-04-25T00:33:55;9.93;;;4.43;;
30571;SDS011;17348;50.948;10.696;2023-04-25T00:36:57;12.77;;;5.27;;
30571;SDS011;17348;50.948;10.696;2023-04-25T00:40:01;11.27;;;4.83;;
30571;SDS011;17348;50.948;10.696;2023-04-25T00:43:06;11.33;;;5.57;;
30571;SDS011;17348;50.948;10.696;2023-04-25T00:46:09;9.67;;;4.63;;
30571;SDS011;17348;50.948;10.696;2023-04-25T00:49:14;10.47;;;5.23;;
30571;SDS011;17348;50.948;10.696;2023-04-25T00:52:17;9.90;;;5.07;;
30571;SDS011;17348;50.948;10.696;2023-04-25T00:55:19;11.57;;;4.83;;
30571;SDS011;17348;50.948;10.696;2023-04-25T00:58:22;7.53;;;4.53;;
30571;SDS011;17348;50.948;10.696;2023-04-25T01:01:24;10.83;;;5.23;;
30571;SDS011;17348;50.948;10.696;2023-04-25T01:04:28;9.37;;;5.03;;
30571;SDS011;17348;50.948;10.696;2023-04-25T01:07:30;7.83;;;4.97;;
30571;SDS011;17348;50.948;10.696;2023-04-25T01:10:33;13.47;;;5.80;;
30571;SDS011;17348;50.948;10.696;2023-04-25T01:13:35;10.50;;;5.10;;
30571;SDS011;17348;50.948;10.696;2023-04-25T01:16:38;10.97;;;5.07;;
30571;SDS011;17348;50.948;10.696;2023-04-25T01:19:43;13.47;;;4.83;;
30571;SDS011;17348;50.948;10.696;2023-04-25T01:22:48;7.20;;;4.23;;
30571;SDS011;17348;50.948;10.696;2023-04-25T01:25:50;13.20;;;5.27;;
30571;SDS011;17348;50.948;10.696;2023-04-25T01:28:53;11.43;;;4.73;;
30571;SDS011;17348;50.948;10.696;2023-04-25T01:31:55;10.13;;;4.83;;
30571;SDS011;17348;50.948;10.696;2023-04-25T01:34:59;9.77;;;4.70;;
30571;SDS011;17348;50.948;10.696;2023-04-25T01:38:04;20.00;;;5.07;;
30571;SDS011;17348;50.948;10.696;2023-04-25T01:41:06;11.73;;;4.83;;
30571;SDS011;17348;50.948;10.696;2023-04-25T01:44:09;10.13;;;5.00;;
30571;SDS011;17348;50.948;10.696;2023-04-25T01:47:11;8.80;;;4.57;;
30571;SDS011;17348;50.948;10.696;2023-04-25T01:50:14;12.47;;;4.90;;
30571;SDS011;17348;50.948;10.696;2023-04-25T01:53:19;12.07;;;4.60;;
30571;SDS011;17348;50.948;10.696;2023-04-25T01:56:21;7.13;;;4.50;;
30571;SDS011;17348;50.948;10.696;2023-04-25T01:59:23;7.23;;;4.37;;
30571;SDS011;17348;50.948;10.696;2023-04-25T02:02:26;15.00;;;5.37;;
30571;SDS011;17348;50.948;10.696;2023-04-25T02:05:28;10.63;;;4.53;;
30571;SDS011;17348;50.948;10.696;2023-04-25T02:08:36;8.67;;;4.30;;
30571;SDS011;17348;50.948;10.696;2023-04-25T02:11:39;14.50;;;4.33;;
30571;SDS011;17348;50.948;10.696;2023-04-25T02:14:41;7.57;;;4.33;;
30571;SDS011;17348;50.948;10.696;2023-04-25T02:17:43;11.63;;;4.53;;
30571;SDS011;17348;50.948;10.696;2023-04-25T02:20:46;10.47;;;4.53;;
30571;SDS011;17348;50.948;10.696;2023-04-25T02:23:50;11.97;;;5.73;;
30571;SDS011;17348;50.948;10.696;2023-04-25T02:26:53;11.67;;;6.77;;
30571;SDS011;17348;50.948;10.696;2023-04-25T02:29:56;12.53;;;5.23;;
30571;SDS011;17348;50.948;10.696;2023-04-25T02:32:58;7.53;;;4.00;;
30571;SDS011;17348;50.948;10.696;2023-04-25T02:36:01;7.90;;;4.40;;
30571;SDS011;17348;50.948;10.696;2023-04-25T02:39:05;11.80;;;4.27;;
30571;SDS011;17348;50.948;10.696;2023-04-25T02:42:07;11.03;;;4.43;;
30571;SDS011;17348;50.948;10.696;2023-04-25T02:45:10;9.13;;;4.57;;
30571;SDS011;17348;50.948;10.696;2023-04-25T02:48:12;14.57;;;4.97;;
30571;SDS011;17348;50.948;10.696;2023-04-25T02:51:14;11.17;;;4.47;;
30571;SDS011;17348;50.948;10.696;2023-04-25T02:54:19;10.17;;;4.60;;
30571;SDS011;17348;50.948;10.696;2023-04-25T02:57:21;14.20;;;3.77;;
30571;SDS011;17348;50.948;10.696;2023-04-25T03:00:23;10.47;;;4.37;;
30571;SDS011;17348;50.948;10.696;2023-04-25T03:03:26;20.53;;;5.10;;
30571;SDS011;17348;50.948;10.696;2023-04-25T03:06:28;11.00;;;4.83;;
30571;SDS011;17348;50.948;10.696;2023-04-25T03:09:32;6.83;;;3.97;;
30571;SDS011;17348;50.948;10.696;2023-04-25T03:12:35;11.57;;;4.67;;
30571;SDS011;17348;50.948;10.696;2023-04-25T03:15:37;9.80;;;4.93;;
30571;SDS011;17348;50.948;10.696;2023-04-25T03:18:40;12.63;;;5.30;;
30571;SDS011;17348;50.948;10.696;2023-04-25T03:21:42;13.13;;;4.63;;
30571;SDS011;17348;50.948;10.696;2023-04-25T03:24:46;14.20;;;4.60;;
30571;SDS011;17348;50.948;10.696;2023-04-25T03:27:48;7.87;;;4.37;;
30571;SDS011;17348;50.948;10.696;2023-04-25T03:30:51;9.17;;;4.23;;
30571;SDS011;17348;50.948;10.696;2023-04-25T03:33:54;17.53;;;4.17;;
30571;SDS011;17348;50.948;10.696;2023-04-25T03:36:56;8.93;;;4.90;;
30571;SDS011;17348;50.948;10.696;2023-04-25T03:40:00;14.43;;;5.23;;
30571;SDS011;17348;50.948;10.696;2023-04-25T03:43:03;10.93;;;4.20;;
30571;SDS011;17348;50.948;10.696;2023-04-25T03:46:05;12.67;;;4.67;;
30571;SDS011;17348;50.948;10.696;2023-04-25T03:49:07;10.63;;;4.53;;
30571;SDS011;17348;50.948;10.696;2023-04-25T03:52:10;9.83;;;4.83;;
30571;SDS011;17348;50.948;10.696;2023-04-25T03:55:13;13.60;;;5.77;;
30571;SDS011;17348;50.948;10.696;2023-04-25T03:58:16;10.50;;;5.17;;
30571;SDS011;17348;50.948;10.696;2023-04-25T04:01:18;11.23;;;4.80;;
30571;SDS011;17348;50.948;10.696;2023-04-25T04:04:21;8.60;;;4.87;;
30571;SDS011;17348;50.948;10.696;2023-04-25T04:07:23;12.30;;;5.20;;
30571;SDS011;17348;50.948;10.696;2023-04-25T04:10:27;13.63;;;5.37;;
30571;SDS011;17348;50.948;10.696;2023-04-25T04:13:29;16.77;;;5.40;;
30571;SDS011;17348;50.948;10.696;2023-04-25T04:16:32;13.20;;;5.03;;
30571;SDS011;17348;50.948;10.696;2023-04-25T04:19:34;11.80;;;5.27;;
30571;SDS011;17348;50.948;10.696;2023-04-25T04:22:37;11.97;;;5.30;;
30571;SDS011;17348;50.948;10.696;2023-04-25T04:25:40;10.60;;;5.50;;
30571;SDS011;17348;50.948;10.696;2023-04-25T04:28:43;13.00;;;5.97;;
30571;SDS011;17348;50.948;10.696;2023-04-25T04:31:47;21.00;;;5.80;;
30571;SDS011;17348;50.948;10.696;2023-04-25T04:34:49;14.97;;;5.67;;
30571;SDS011;17348;50.948;10.696;2023-04-25T04:37:53;10.03;;;5.10;;
30571;SDS011;17348;50.948;10.696;2023-04-25T04:40:57;18.30;;;5.33;;
30571;SDS011;17348;50.948;10.696;2023-04-25T04:43:59;13.13;;;5.63;;
30571;SDS011;17348;50.948;10.696;2023-04-25T04:47:03;13.73;;;5.80;;
30571;SDS011;17348;50.948;10.696;2023-04-25T04:50:07;13.90;;;4.93;;
30571;SDS011;17348;50.948;10.696;2023-04-25T04:53:10;11.57;;;5.47;;
30571;SDS011;17348;50.948;10.696;2023-04-25T04:56:13;13.33;;;5.03;;
30571;SDS011;17348;50.948;10.696;2023-04-25T04:59:16;15.97;;;4.57;;
30571;SDS011;17348;50.948;10.696;2023-04-25T05:02:18;11.53;;;4.50;;
30571;SDS011;17348;50.948;10.696;2023-04-25T05:05:20;8.90;;;4.23;;
30571;SDS011;17348;50.948;10.696;2023-04-25T05:08:23;12.20;;;3.73;;
30571;SDS011;17348;50.948;10.696;2023-04-25T05:11:27;16.97;;;3.93;;
30571;SDS011;17348;50.948;10.696;2023-04-25T05:14:29;9.67;;;4.07;;
30571;SDS011;17348;50.948;10.696;2023-04-25T05:17:33;10.53;;;4.27;;
30571;SDS011;17348;50.948;10.696;2023-04-25T05:20:35;9.30;;;3.63;;
30571;SDS011;17348;50.948;10.696;2023-04-25T05:23:37;11.07;;;3.93;;
30571;SDS011;17348;50.948;10.696;2023-04-25T05:26:41;13.23;;;3.57;;
30571;SDS011;17348;50.948;10.696;2023-04-25T05:29:44;10.70;;;3.27;;
30571;SDS011;17348;50.948;10.696;2023-04-25T05:32:46;9.23;;;3.20;;
30571;SDS011;17348;50.948;10.696;2023-04-25T05:35:48;21.30;;;3.38;;
30571;SDS011;17348;50.948;10.696;2023-04-25T05:38:51;8.43;;;3.10;;
30571;SDS011;17348;50.948;10.696;2023-04-25T05:41:55;9.73;;;3.13;;
30571;SDS011;17348;50.948;10.696;2023-04-25T05:44:57;7.95;;;3.33;;
30571;SDS011;17348;50.948;10.696;2023-04-25T05:48:00;15.23;;;3.28;;
30571;SDS011;17348;50.948;10.696;2023-04-25T05:51:02;10.02;;;2.60;;
30571;SDS011;17348;50.948;10.696;2023-04-25T05:54:05;11.07;;;2.90;;
30571;SDS011;17348;50.948;10.696;2023-04-25T05:57:14;10.02;;;2.72;;
30571;SDS011;17348;50.948;10.696;2023-04-25T06:00:21;5.10;;;2.40;;
30571;SDS011;17348;50.948;10.696;2023-04-25T06:03:24;3.20;;;2.10;;
30571;SDS011;17348;50.948;10.696;2023-04-25T06:06:28;15.95;;;2.85;;
30571;SDS011;17348;50.948;10.696;2023-04-25T06:09:31;11.55;;;3.00;;
30571;SDS011;17348;50.948;10.696;2023-04-25T06:12:34;8.93;;;2.30;;
30571;SDS011;17348;50.948;10.696;2023-04-25T06:15:37;6.90;;;2.55;;
30571;SDS011;17348;50.948;10.696;2023-04-25T06:18:39;12.05;;;3.38;;
30571;SDS011;17348;50.948;10.696;2023-04-25T06:21:42;10.25;;;2.58;;
30571;SDS011;17348;50.948;10.696;2023-04-25T06:24:45;9.52;;;2.50;;
30571;SDS011;17348;50.948;10.696;2023-04-25T06:27:49;5.30;;;2.58;;
30571;SDS011;17348;50.948;10.696;2023-04-25T06:30:51;9.95;;;2.85;;
30571;SDS011;17348;50.948;10.696;2023-04-25T06:33:53;6.70;;;3.28;;
30571;SDS011;17348;50.948;10.696;2023-04-25T06:36:56;5.75;;;2.78;;
30571;SDS011;17348;50.948;10.696;2023-04-25T06:39:58;6.85;;;2.40;;
30571;SDS011;17348;50.948;10.696;2023-04-25T06:43:02;4.95;;;2.67;;
30571;SDS011;17348;50.948;10.696;2023-04-25T06:46:04;4.90;;;2.42;;
30571;SDS011;17348;50.948;10.696;2023-04-25T06:49:06;6.10;;;2.45;;
30571;SDS011;17348;50.948;10.696;2023-04-25T06:52:09;11.30;;;3.38;;
30571;SDS011;17348;50.948;10.696;2023-04-25T06:55:12;8.90;;;2.95;;
30571;SDS011;17348;50.948;10.696;2023-04-25T06:58:15;8.55;;;2.65;;
30571;SDS011;17348;50.948;10.696;2023-04-25T07:01:18;6.63;;;2.63;;
30571;SDS011;17348;50.948;10.696;2023-04-25T07:04:23;6.07;;;3.17;;
30571;SDS011;17348;50.948;10.696;2023-04-25T07:07:25;12.27;;;2.45;;
30571;SDS011;17348;50.948;10.696;2023-04-25T07:10:27;12.20;;;3.38;;
30571;SDS011;17348;50.948;10.696;2023-04-25T07:13:31;10.48;;;2.70;;
30571;SDS011;17348;50.948;10.696;2023-04-25T07:16:34;11.15;;;2.72;;
30571;SDS011;17348;50.948;10.696;2023-04-25T07:19:36;5.28;;;2.75;;
30571;SDS011;17348;50.948;10.696;2023-04-25T07:22:40;6.53;;;2.50;;
30571;SDS011;17348;50.948;10.696;2023-04-25T07:25:42;9.52;;;2.75;;
30571;SDS011;17348;50.948;10.696;2023-04-25T07:28:46;7.93;;;3.05;;
30571;SDS011;17348;50.948;10.696;2023-04-25T07:31:51;8.93;;;3.05;;
30571;SDS011;17348;50.948;10.696;2023-04-25T07:34:53;16.48;;;3.03;;
30571;SDS011;17348;50.948;10.696;2023-04-25T07:37:55;5.53;;;2.78;;
30571;SDS011;17348;50.948;10.696;2023-04-25T07:40:59;8.48;;;2.20;;
30571;SDS011;17348;50.948;10.696;2023-04-25T07:44:03;6.38;;;2.63;;
30571;SDS011;17348;50.948;10.696;2023-04-25T07:47:05;10.48;;;3.75;;
30571;SDS011;17348;50.948;10.696;2023-04-25T07:50:08;15.73;;;4.17;;
30571;SDS011;17348;50.948;10.696;2023-04-25T07:53:11;10.10;;;2.87;;
30571;SDS011;17348;50.948;10.696;2023-04-25T07:56:14;6.17;;;3.50;;
30571;SDS011;17348;50.948;10.696;2023-04-25T07:59:17;7.47;;;3.28;;
30571;SDS011;17348;50.948;10.696;2023-04-25T08:02:20;8.45;;;2.90;;
30571;SDS011;17348;50.948;10.696;2023-04-25T08:05:22;10.25;;;3.25;;
30571;SDS011;17348;50.948;10.696;2023-04-25T08:08:24;9.87;;;3.17;;
30571;SDS011;17348;50.948;10.696;2023-04-25T08:11:27;8.87;;;3.17;;
30571;SDS011;17348;50.948;10.696;2023-04-25T08:14:30;6.90;;;2.93;;
30571;SDS011;17348;50.948;10.696;2023-04-25T08:17:36;7.30;;;3.20;;
30571;SDS011;17348;50.948;10.696;2023-04-25T08:20:38;190.27;;;13.97;;
30571;SDS011;17348;50.948;10.696;2023-04-25T08:23:41;15.77;;;5.73;;
30571;SDS011;17348;50.948;10.696;2023-04-25T08:26:43;39.93;;;6.07;;
30571;SDS011;17348;50.948;10.696;2023-04-25T08:29:47;36.63;;;5.03;;
30571;SDS011;17348;50.948;10.696;2023-04-25T08:32:49;10.83;;;4.67;;
30571;SDS011;17348;50.948;10.696;2023-04-25T08:35:51;9.77;;;3.63;;
30571;SDS011;17348;50.948;10.696;2023-04-25T08:38:54;8.47;;;4.03;;
30571;SDS011;17348;50.948;10.696;2023-04-25T08:41:56;10.07;;;4.20;;
30571;SDS011;17348;50.948;10.696;2023-04-25T08:45:00;7.93;;;4.00;;
30571;SDS011;17348;50.948;10.696;2023-04-25T08:48:03;7.77;;;3.40;;
30571;SDS011;17348;50.948;10.696;2023-04-25T08:51:08;4.60;;;2.47;;
30571;SDS011;17348;50.948;10.696;2023-04-25T08:54:12;9.07;;;2.80;;
30571;SDS011;17348;50.948;10.696;2023-04-25T08:57:16;3.47;;;2.30;;
30571;SDS011;17348;50.948;10.696;2023-04-25T09:00:21;5.37;;;2.40;;
30571;SDS011;17348;50.948;10.696;2023-04-25T09:03:24;3.10;;;1.93;;
30571;SDS011;17348;50.948;10.696;2023-04-25T09:06:27;14.93;;;1.80;;
30571;SDS011;17348;50.948;10.696;2023-04-25T09:09:31;3.93;;;2.37;;
30571;SDS011;17348;50.948;10.696;2023-04-25T09:12:33;5.50;;;2.23;;
30571;SDS011;17348;50.948;10.696;2023-04-25T09:15:47;4.63;;;2.20;;
30571;SDS011;17348;50.948;10.696;2023-04-25T09:18:51;3.20;;;1.43;;
30571;SDS011;17348;50.948;10.696;2023-04-25T09:21:54;4.80;;;1.87;;
30571;SDS011;17348;50.948;10.696;2023-04-25T09:24:56;4.13;;;1.83;;
30571;SDS011;17348;50.948;10.696;2023-04-25T09:27:59;3.60;;;1.37;;
30571;SDS011;17348;50.948;10.696;2023-04-25T09:31:07;7.73;;;1.47;;
30571;SDS011;17348;50.948;10.696;2023-04-25T09:34:14;3.33;;;1.70;;
30571;SDS011;17348;50.948;10.696;2023-04-25T09:37:17;1.87;;;1.20;;
30571;SDS011;17348;50.948;10.696;2023-04-25T09:40:21;3.83;;;2.00;;
30571;SDS011;17348;50.948;10.696;2023-04-25T09:43:23;4.07;;;1.77;;
30571;SDS011;17348;50.948;10.696;2023-04-25T09:46:33;5.22;;;2.08;;
30571;SDS011;17348;50.948;10.696;2023-04-25T09:49:38;5.35;;;1.77;;
30571;SDS011;17348;50.948;10.696;2023-04-25T09:52:43;8.90;;;2.38;;
30571;SDS011;17348;50.948;10.696;2023-04-25T09:55:45;8.20;;;1.87;;
30571;SDS011;17348;50.948;10.696;2023-04-25T09:58:48;7.15;;;1.45;;
30571;SDS011;17348;50.948;10.696;2023-04-25T10:01:56;10.43;;;1.90;;
30571;SDS011;17348;50.948;10.696;2023-04-25T10:05:00;10.43;;;2.03;;
30571;SDS011;17348;50.948;10.696;2023-04-25T10:08:07;11.73;;;2.13;;
30571;SDS011;17348;50.948;10.696;2023-04-25T10:11:09;9.13;;;2.87;;
30571;SDS011;17348;50.948;10.696;2023-04-25T10:14:14;11.63;;;2.50;;
30571;SDS011;17348;50.948;10.696;2023-04-25T10:17:19;11.07;;;3.10;;
30571;SDS011;17348;50.948;10.696;2023-04-25T10:20:22;9.67;;;2.13;;
30571;SDS011;17348;50.948;10.696;2023-04-25T10:23:24;6.20;;;2.23;;
30571;SDS011;17348;50.948;10.696;2023-04-25T10:26:28;10.60;;;2.83;;
30571;SDS011;17348;50.948;10.696;2023-04-25T10:29:31;8.80;;;2.87;;
30571;SDS011;17348;50.948;10.696;2023-04-25T10:32:34;10.80;;;2.57;;
30571;SDS011;17348;50.948;10.696;2023-04-25T10:35:37;3.43;;;2.60;;
30571;SDS011;17348;50.948;10.696;2023-04-25T10:38:41;5.30;;;1.43;;
30571;SDS011;17348;50.948;10.696;2023-04-25T10:41:45;5.85;;;1.60;;
30571;SDS011;17348;50.948;10.696;2023-04-25T10:45:00;7.63;;;2.28;;
30571;SDS011;17348;50.948;10.696;2023-04-25T10:48:05;10.80;;;2.20;;
30571;SDS011;17348;50.948;10.696;2023-04-25T10:51:27;12.13;;;2.42;;
30571;SDS011;17348;50.948;10.696;2023-04-25T10:54:30;10.48;;;2.42;;
30571;SDS011;17348;50.948;10.696;2023-04-25T10:57:36;8.02;;;2.08;;
30571;SDS011;17348;50.948;10.696;2023-04-25T11:00:40;17.30;;;3.25;;
30571;SDS011;17348;50.948;10.696;2023-04-25T11:03:44;7.20;;;2.30;;
30571;SDS011;17348;50.948;10.696;2023-04-25T11:06:55;20.67;;;3.53;;
30571;SDS011;17348;50.948;10.696;2023-04-25T11:10:10;8.98;;;2.70;;
30571;SDS011;17348;50.948;10.696;2023-04-25T11:13:12;9.90;;;2.53;;
30571;SDS011;17348;50.948;10.696;2023-04-25T11:16:15;20.98;;;2.92;;
30571;SDS011;17348;50.948;10.696;2023-04-25T11:19:20;10.20;;;2.77;;
30571;SDS011;17348;50.948;10.696;2023-04-25T11:22:22;11.35;;;2.85;;
30571;SDS011;17348;50.948;10.696;2023-04-25T11:25:25;11.82;;;3.00;;
30571;SDS011;17348;50.948;10.696;2023-04-25T11:28:33;4.90;;;2.20;;
30571;SDS011;17348;50.948;10.696;2023-04-25T11:31:35;10.90;;;3.03;;
30571;SDS011;17348;50.948;10.696;2023-04-25T11:34:39;13.02;;;3.13;;
30571;SDS011;17348;50.948;10.696;2023-04-25T11:37:44;5.95;;;2.88;;
30571;SDS011;17348;50.948;10.696;2023-04-25T11:40:49;16.80;;;4.45;;
30571;SDS011;17348;50.948;10.696;2023-04-25T11:43:54;7.13;;;2.22;;
30571;SDS011;17348;50.948;10.696;2023-04-25T11:46:56;9.90;;;2.38;;
30571;SDS011;17348;50.948;10.696;2023-04-25T11:50:00;12.55;;;2.97;;
30571;SDS011;17348;50.948;10.696;2023-04-25T11:53:03;10.27;;;2.75;;
30571;SDS011;17348;50.948;10.696;2023-04-25T11:56:08;4.80;;;1.70;;
30571;SDS011;17348;50.948;10.696;2023-04-25T11:59:12;7.80;;;1.83;;
30571;SDS011;17348;50.948;10.696;2023-04-25T12:02:25;10.52;;;3.00;;
30571;SDS011;17348;50.948;10.696;2023-04-25T12:05:30;11.82;;;3.10;;
30571;SDS011;17348;50.948;10.696;2023-04-25T12:08:33;7.57;;;2.25;;
30571;SDS011;17348;50.948;10.696;2023-04-25T12:11:41;7.65;;;1.90;;
30571;SDS011;17348;50.948;10.696;2023-04-25T12:14:46;5.95;;;2.28;;
30571;SDS011;17348;50.948;10.696;2023-04-25T12:17:49;7.57;;;2.08;;
30571;SDS011;17348;50.948;10.696;2023-04-25T12:20:54;10.23;;;2.67;;
30571;SDS011;17348;50.948;10.696;2023-04-25T12:23:57;11.10;;;2.63;;
30571;SDS011;17348;50.948;10.696;2023-04-25T12:27:15;6.22;;;1.77;;
30571;SDS011;17348;50.948;10.696;2023-04-25T12:30:20;10.15;;;1.77;;
30571;SDS011;17348;50.948;10.696;2023-04-25T12:33:23;6.68;;;2.33;;
30571;SDS011;17348;50.948;10.696;2023-04-25T12:36:27;15.80;;;2.13;;
30571;SDS011;17348;50.948;10.696;2023-04-25T12:39:29;8.00;;;1.77;;
30571;SDS011;17348;50.948;10.696;2023-04-25T12:42:31;3.92;;;1.45;;
30571;SDS011;17348;50.948;10.696;2023-04-25T12:45:34;5.10;;;1.52;;
30571;SDS011;17348;50.948;10.696;2023-04-25T12:48:36;8.43;;;1.73;;
30571;SDS011;17348;50.948;10.696;2023-04-25T12:51:40;8.82;;;1.27;;
30571;SDS011;17348;50.948;10.696;2023-04-25T12:54:43;9.57;;;1.73;;
30571;SDS011;17348;50.948;10.696;2023-04-25T12:57:45;7.50;;;1.85;;
30571;SDS011;17348;50.948;10.696;2023-04-25T13:00:48;7.07;;;1.15;;
30571;SDS011;17348;50.948;10.696;2023-04-25T13:03:50;6.97;;;1.42;;
30571;SDS011;17348;50.948;10.696;2023-04-25T13:06:54;6.32;;;1.42;;
30571;SDS011;17348;50.948;10.696;2023-04-25T13:09:56;9.27;;;1.83;;
30571;SDS011;17348;50.948;10.696;2023-04-25T13:12:59;6.93;;;1.90;;
30571;SDS011;17348;50.948;10.696;2023-04-25T13:16:03;8.68;;;1.30;;
30571;SDS011;17348;50.948;10.696;2023-04-25T13:19:06;7.75;;;1.65;;
30571;SDS011;17348;50.948;10.696;2023-04-25T13:22:12;9.00;;;1.67;;
30571;SDS011;17348;50.948;10.696;2023-04-25T13:25:17;7.65;;;1.60;;
30571;SDS011;17348;50.948;10.696;2023-04-25T13:28:19;6.88;;;1.50;;
30571;SDS011;17348;50.948;10.696;2023-04-25T13:31:21;9.82;;;1.65;;
30571;SDS011;17348;50.948;10.696;2023-04-25T13:34:24;7.18;;;1.40;;
30571;SDS011;17348;50.948;10.696;2023-04-25T13:37:27;7.00;;;1.73;;
30571;SDS011;17348;50.948;10.696;2023-04-25T13:40:33;6.20;;;1.80;;
30571;SDS011;17348;50.948;10.696;2023-04-25T13:43:37;11.80;;;1.33;;
30571;SDS011;17348;50.948;10.696;2023-04-25T13:46:40;7.22;;;1.77;;
30571;SDS011;17348;50.948;10.696;2023-04-25T13:49:42;14.85;;;2.03;;
30571;SDS011;17348;50.948;10.696;2023-04-25T13:52:46;10.90;;;1.80;;
30571;SDS011;17348;50.948;10.696;2023-04-25T13:55:48;9.43;;;1.75;;
30571;SDS011;17348;50.948;10.696;2023-04-25T13:58:51;4.22;;;1.42;;
30571;SDS011;17348;50.948;10.696;2023-04-25T14:01:53;5.00;;;1.45;;
30571;SDS011;17348;50.948;10.696;2023-04-25T14:04:56;5.18;;;1.58;;
30571;SDS011;17348;50.948;10.696;2023-04-25T14:07:59;6.25;;;1.20;;
30571;SDS011;17348;50.948;10.696;2023-04-25T14:11:02;3.78;;;1.27;;
30571;SDS011;17348;50.948;10.696;2023-04-25T14:14:04;7.47;;;2.30;;
30571;SDS011;17348;50.948;10.696;2023-04-25T14:17:07;4.57;;;1.33;;
30571;SDS011;17348;50.948;10.696;2023-04-25T14:20:10;6.18;;;1.55;;
30571;SDS011;17348;50.948;10.696;2023-04-25T14:23:14;9.02;;;2.08;;
30571;SDS011;17348;50.948;10.696;2023-04-25T14:26:18;7.50;;;2.35;;
30571;SDS011;17348;50.948;10.696;2023-04-25T14:29:20;7.20;;;1.80;;
30571;SDS011;17348;50.948;10.696;2023-04-25T14:32:22;6.20;;;2.17;;
30571;SDS011;17348;50.948;10.696;2023-04-25T14:35:25;7.88;;;1.88;;
30571;SDS011;17348;50.948;10.696;2023-04-25T14:38:28;8.30;;;1.30;;
30571;SDS011;17348;50.948;10.696;2023-04-25T14:41:31;7.65;;;1.30;;
30571;SDS011;17348;50.948;10.696;2023-04-25T14:44:33;25.08;;;2.80;;
30571;SDS011;17348;50.948;10.696;2023-04-25T14:47:35;5.40;;;1.45;;
30571;SDS011;17348;50.948;10.696;2023-04-25T14:50:38;2.45;;;1.30;;
30571;SDS011;17348;50.948;10.696;2023-04-25T14:53:42;3.35;;;1.45;;
30571;SDS011;17348;50.948;10.696;2023-04-25T14:56:44;7.63;;;1.60;;
30571;SDS011;17348;50.948;10.696;2023-04-25T14:59:47;4.75;;;1.60;;
30571;SDS011;17348;50.948;10.696;2023-04-25T15:02:49;13.30;;;2.08;;
30571;SDS011;17348;50.948;10.696;2023-04-25T15:05:52;8.25;;;2.03;;
30571;SDS011;17348;50.948;10.696;2023-04-25T15:08:56;12.23;;;1.60;;
30571;SDS011;17348;50.948;10.696;2023-04-25T15:11:58;6.55;;;1.30;;
30571;SDS011;17348;50.948;10.696;2023-04-25T15:15:01;6.82;;;1.52;;
30571;SDS011;17348;50.948;10.696;2023-04-25T15:18:03;4.53;;;1.50;;
30571;SDS011;17348;50.948;10.696;2023-04-25T15:21:06;5.97;;;1.83;;
30571;SDS011;17348;50.948;10.696;2023-04-25T15:24:10;8.80;;;1.70;;
30571;SDS011;17348;50.948;10.696;2023-04-25T15:27:12;9.60;;;2.00;;
30571;SDS011;17348;50.948;10.696;2023-04-25T15:30:15;16.77;;;2.10;;
30571;SDS011;17348;50.948;10.696;2023-04-25T15:33:18;8.05;;;1.50;;
30571;SDS011;17348;50.948;10.696;2023-04-25T15:36:20;7.28;;;2.08;;
30571;SDS011;17348;50.948;10.696;2023-04-25T15:39:24;2.17;;;1.52;;
30571;SDS011;17348;50.948;10.696;2023-04-25T15:42:26;6.55;;;1.27;;
30571;SDS011;17348;50.948;10.696;2023-04-25T15:45:29;4.32;;;1.58;;
30571;SDS011;17348;50.948;10.696;2023-04-25T15:48:32;6.55;;;1.60;;
30571;SDS011;17348;50.948;10.696;2023-04-25T15:51:35;5.78;;;1.80;;
30571;SDS011;17348;50.948;10.696;2023-04-25T15:54:39;9.95;;;1.45;;
30571;SDS011;17348;50.948;10.696;2023-04-25T15:57:41;5.22;;;1.70;;
30571;SDS011;17348;50.948;10.696;2023-04-25T16:00:44;6.10;;;1.85;;
30571;SDS011;17348;50.948;10.696;2023-04-25T16:03:49;8.68;;;2.00;;
30571;SDS011;17348;50.948;10.696;2023-04-25T16:06:51;12.88;;;1.50;;
30571;SDS011;17348;50.948;10.696;2023-04-25T16:09:55;5.65;;;1.73;;
30571;SDS011;17348;50.948;10.696;2023-04-25T16:12:57;11.02;;;1.70;;
30571;SDS011;17348;50.948;10.696;2023-04-25T16:16:00;6.45;;;1.92;;
30571;SDS011;17348;50.948;10.696;2023-04-25T16:19:03;10.02;;;1.60;;
30571;SDS011;17348;50.948;10.696;2023-04-25T16:22:05;8.38;;;1.27;;
30571;SDS011;17348;50.948;10.696;2023-04-25T16:25:10;8.88;;;1.58;;
30571;SDS011;17348;50.948;10.696;2023-04-25T16:28:12;8.40;;;2.55;;
30571;SDS011;17348;50.948;10.696;2023-04-25T16:31:15;4.30;;;1.20;;
30571;SDS011;17348;50.948;10.696;2023-04-25T16:34:17;6.45;;;1.70;;
30571;SDS011;17348;50.948;10.696;2023-04-25T16:37:20;5.28;;;1.70;;
30571;SDS011;17348;50.948;10.696;2023-04-25T16:40:26;6.85;;;1.90;;
30571;SDS011;17348;50.948;10.696;2023-04-25T16:43:28;8.65;;;1.52;;
30571;SDS011;17348;50.948;10.696;2023-04-25T16:46:31;4.85;;;1.45;;
30571;SDS011;17348;50.948;10.696;2023-04-25T16:49:33;5.43;;;1.52;;
30571;SDS011;17348;50.948;10.696;2023-04-25T16:52:35;2.08;;;1.13;;
30571;SDS011;17348;50.948;10.696;2023-04-25T16:55:39;5.18;;;1.25;;
30571;SDS011;17348;50.948;10.696;2023-04-25T16:58:42;5.57;;;1.70;;
30571;SDS011;17348;50.948;10.696;2023-04-25T17:01:44;10.73;;;1.33;;
30571;SDS011;17348;50.948;10.696;2023-04-25T17:04:47;5.65;;;1.30;;
30571;SDS011;17348;50.948;10.696;2023-04-25T17:07:49;7.72;;;1.65;;
30571;SDS011;17348;50.948;10.696;2023-04-25T17:10:53;5.32;;;1.27;;
30571;SDS011;17348;50.948;10.696;2023-04-25T17:13:55;3.55;;;1.13;;
30571;SDS011;17348;50.948;10.696;2023-04-25T17:16:58;4.32;;;1.40;;
30571;SDS011;17348;50.948;10.696;2023-04-25T17:20:00;6.32;;;1.20;;
30571;SDS011;17348;50.948;10.696;2023-04-25T17:23:05;5.80;;;1.17;;
30571;SDS011;17348;50.948;10.696;2023-04-25T17:26:09;4.95;;;1.70;;
30571;SDS011;17348;50.948;10.696;2023-04-25T17:29:11;7.47;;;4.10;;
30571;SDS011;17348;50.948;10.696;2023-04-25T17:32:14;7.25;;;2.97;;
30571;SDS011;17348;50.948;10.696;2023-04-25T17:35:17;2.60;;;1.50;;
30571;SDS011;17348;50.948;10.696;2023-04-25T17:38:19;8.57;;;1.50;;
30571;SDS011;17348;50.948;10.696;2023-04-25T17:41:23;4.50;;;1.52;;
30571;SDS011;17348;50.948;10.696;2023-04-25T17:44:26;8.20;;;1.35;;
30571;SDS011;17348;50.948;10.696;2023-04-25T17:47:28;12.43;;;2.00;;
30571;SDS011;17348;50.948;10.696;2023-04-25T17:50:31;7.35;;;1.98;;
30571;SDS011;17348;50.948;10.696;2023-04-25T17:53:34;7.27;;;1.43;;
30571;SDS011;17348;50.948;10.696;2023-04-25T17:56:38;7.13;;;1.40;;
30571;SDS011;17348;50.948;10.696;2023-04-25T17:59:40;6.63;;;1.97;;